createdAt,value
2019-03-31T00:01:49.976Z,2.73
2019-03-31T00:04:16.116Z,2.68
2019-03-31T00:06:42.136Z,2.68
2019-03-31T00:09:08.271Z,2.66
2019-03-31T00:11:34.396Z,2.70
2019-03-31T00:14:00.562Z,2.71
2019-03-31T00:16:26.679Z,2.71
2019-03-31T00:18:52.817Z,2.69
2019-03-31T00:21:18.933Z,2.65
2019-03-31T00:23:45.029Z,2.63
2019-03-31T00:26:11.162Z,2.59
2019-03-31T00:28:37.292Z,2.55
2019-03-31T00:31:03.936Z,2.49
2019-03-31T00:33:30.056Z,2.46
2019-03-31T00:35:56.181Z,2.43
2019-03-31T00:38:22.319Z,2.41
2019-03-31T00:40:48.352Z,2.40
2019-03-31T00:43:14.478Z,2.36
2019-03-31T00:45:40.662Z,2.35
2019-03-31T00:48:06.784Z,2.35
2019-03-31T00:50:32.900Z,2.36
2019-03-31T00:52:58.931Z,2.37
2019-03-31T00:55:25.058Z,2.34
2019-03-31T00:57:51.219Z,2.29
2019-03-31T01:00:39.239Z,2.24
2019-03-31T01:03:05.993Z,2.19
2019-03-31T01:05:32.549Z,2.16
2019-03-31T01:07:59.100Z,2.14
2019-03-31T01:10:25.633Z,2.15
2019-03-31T01:12:51.954Z,2.13
2019-03-31T01:15:21.795Z,2.15
2019-03-31T01:17:48.121Z,2.12
2019-03-31T01:20:14.266Z,2.10
2019-03-31T01:22:40.388Z,2.07
2019-03-31T01:25:07.733Z,2.03
2019-03-31T01:27:34.073Z,2.01
2019-03-31T01:30:00.320Z,1.97
2019-03-31T01:32:26.435Z,1.96
2019-03-31T01:34:52.567Z,1.93
2019-03-31T01:37:20.329Z,1.88
2019-03-31T01:39:46.672Z,1.87
2019-03-31T01:42:12.791Z,1.87
2019-03-31T01:44:38.827Z,1.88
2019-03-31T01:47:06.869Z,1.83
2019-03-31T01:49:33.141Z,1.78
2019-03-31T01:51:59.302Z,1.75
2019-03-31T01:54:25.494Z,1.77
2019-03-31T01:56:51.588Z,1.77
2019-03-31T01:59:17.752Z,1.75
2019-03-31T02:01:44.285Z,1.70
2019-03-31T02:04:10.444Z,1.67
2019-03-31T02:06:36.617Z,1.63
2019-03-31T02:09:04.642Z,1.60
2019-03-31T02:11:30.784Z,1.59
2019-03-31T02:13:56.915Z,1.57
2019-03-31T02:16:23.142Z,1.52
2019-03-31T02:18:49.318Z,1.49
2019-03-31T02:21:15.440Z,1.47
2019-03-31T02:23:41.515Z,1.43
2019-03-31T02:26:07.652Z,1.39
2019-03-31T02:28:33.810Z,1.41
2019-03-31T02:31:00.347Z,1.41
2019-03-31T02:33:26.425Z,1.39
2019-03-31T02:35:52.569Z,1.43
2019-03-31T02:38:18.813Z,1.42
2019-03-31T02:40:44.982Z,1.37
2019-03-31T02:43:11.116Z,1.33
2019-03-31T02:45:37.251Z,1.29
2019-03-31T02:48:03.476Z,1.26
2019-03-31T02:50:44.952Z,1.24
2019-03-31T02:53:11.073Z,1.22
2019-03-31T02:55:37.849Z,1.20
2019-03-31T02:58:04.468Z,1.19
2019-03-31T03:00:30.817Z,1.17
2019-03-31T03:02:57.450Z,1.13
2019-03-31T03:05:23.923Z,1.16
2019-03-31T03:07:50.518Z,1.18
2019-03-31T03:10:19.027Z,1.15
2019-03-31T03:13:11.581Z,1.13
2019-03-31T03:15:56.163Z,1.10
2019-03-31T03:18:22.282Z,1.05
2019-03-31T03:20:48.351Z,1.00
2019-03-31T03:23:14.476Z,0.96
2019-03-31T03:25:55.227Z,0.94
2019-03-31T03:28:08.718Z,0.93
2019-03-31T03:30:34.873Z,0.86
2019-03-31T03:33:14.515Z,0.91
2019-03-31T03:35:29.148Z,0.89
2019-03-31T03:37:55.325Z,0.88
2019-03-31T03:40:21.404Z,0.85
2019-03-31T03:42:47.549Z,0.81
2019-03-31T03:45:13.707Z,0.78
2019-03-31T03:47:39.845Z,0.78
2019-03-31T03:50:05.962Z,0.83
2019-03-31T03:52:32.043Z,0.87
2019-03-31T03:54:58.162Z,0.88
2019-03-31T03:57:24.334Z,0.90
2019-03-31T03:59:50.359Z,0.88
2019-03-31T04:02:16.481Z,0.91
2019-03-31T04:04:42.721Z,0.86
2019-03-31T04:07:08.843Z,0.82
2019-03-31T04:09:34.976Z,0.79
2019-03-31T04:12:01.107Z,0.75
2019-03-31T04:14:27.234Z,0.71
2019-03-31T04:16:53.270Z,0.68
2019-03-31T04:19:19.400Z,0.66
2019-03-31T04:21:45.533Z,0.65
2019-03-31T04:24:11.575Z,0.65
2019-03-31T04:26:37.702Z,0.68
2019-03-31T04:29:03.843Z,0.69
2019-03-31T04:31:30.013Z,0.69
2019-03-31T04:33:56.150Z,0.67
2019-03-31T04:36:22.276Z,0.67
2019-03-31T04:38:48.405Z,0.65
2019-03-31T04:41:14.538Z,0.63
2019-03-31T04:43:40.664Z,0.61
2019-03-31T04:46:06.779Z,0.60
2019-03-31T04:48:32.907Z,0.60
2019-03-31T04:50:58.959Z,0.63
2019-03-31T04:53:25.106Z,0.64
2019-03-31T04:55:51.277Z,0.65
2019-03-31T04:58:17.426Z,0.65
2019-03-31T05:00:43.554Z,0.65
2019-03-31T05:03:09.598Z,0.64
2019-03-31T05:05:35.728Z,0.67
2019-03-31T05:08:01.747Z,0.69
2019-03-31T05:10:27.925Z,0.71
2019-03-31T05:12:54.046Z,0.74
2019-03-31T05:15:20.115Z,0.78
2019-03-31T05:17:46.146Z,0.79
2019-03-31T05:20:12.317Z,0.80
2019-03-31T05:22:38.476Z,0.84
2019-03-31T05:25:05.003Z,0.87
2019-03-31T05:27:31.215Z,0.89
2019-03-31T05:29:57.346Z,0.90
2019-03-31T05:32:23.510Z,0.91
2019-03-31T05:34:49.643Z,0.96
2019-03-31T05:37:15.809Z,0.99
2019-03-31T05:39:41.948Z,1.04
2019-03-31T05:42:08.066Z,1.06
2019-03-31T05:44:34.185Z,1.07
2019-03-31T05:47:00.321Z,1.11
2019-03-31T05:49:26.477Z,1.13
2019-03-31T05:51:52.593Z,1.17
2019-03-31T05:54:18.646Z,1.22
2019-03-31T05:56:44.764Z,1.25
2019-03-31T05:59:10.927Z,1.30
2019-03-31T06:01:36.958Z,1.36
2019-03-31T06:04:03.178Z,1.41
2019-03-31T06:06:29.362Z,1.43
2019-03-31T06:08:55.611Z,1.45
2019-03-31T06:11:21.659Z,1.52
2019-03-31T06:13:47.894Z,1.58
2019-03-31T06:16:14.025Z,1.64
2019-03-31T06:18:40.146Z,1.68
2019-03-31T06:21:06.294Z,1.75
2019-03-31T06:23:32.473Z,1.80
2019-03-31T06:25:59.153Z,1.85
2019-03-31T06:28:25.289Z,1.92
2019-03-31T06:30:51.510Z,2.00
2019-03-31T06:33:17.657Z,2.08
2019-03-31T06:35:43.823Z,2.13
2019-03-31T06:38:10.053Z,2.20
2019-03-31T06:40:36.214Z,2.26
2019-03-31T06:43:02.426Z,2.34
2019-03-31T06:45:28.668Z,2.41
2019-03-31T06:47:54.903Z,2.51
2019-03-31T06:50:21.157Z,2.58
2019-03-31T06:52:47.336Z,2.66
2019-03-31T06:55:15.396Z,2.74
2019-03-31T06:57:41.651Z,2.82
2019-03-31T07:00:08.153Z,2.91
2019-03-31T07:02:34.269Z,3.05
2019-03-31T07:05:01.802Z,3.17
2019-03-31T07:07:28.263Z,3.27
2019-03-31T07:09:54.522Z,3.35
2019-03-31T07:12:20.769Z,3.44
2019-03-31T07:14:47.071Z,3.52
2019-03-31T07:17:13.360Z,3.59
2019-03-31T07:19:39.601Z,3.67
2019-03-31T07:22:05.720Z,3.72
2019-03-31T07:24:31.980Z,3.85
2019-03-31T07:26:58.020Z,3.95
2019-03-31T07:29:24.076Z,4.04
2019-03-31T07:31:50.414Z,4.16
2019-03-31T07:34:16.638Z,4.25
2019-03-31T07:36:42.760Z,4.38
2019-03-31T07:39:09.316Z,4.52
2019-03-31T07:41:35.604Z,4.63
2019-03-31T07:44:01.849Z,4.78
2019-03-31T07:46:28.092Z,4.99
2019-03-31T07:48:54.244Z,5.29
2019-03-31T07:51:20.384Z,5.47
2019-03-31T07:53:46.615Z,5.55
2019-03-31T07:56:16.139Z,5.65
2019-03-31T07:58:42.019Z,5.75
2019-03-31T08:01:08.258Z,5.92
2019-03-31T08:03:34.505Z,6.16
2019-03-31T08:06:00.630Z,6.31
2019-03-31T08:08:26.897Z,6.37
2019-03-31T08:10:53.019Z,6.48
2019-03-31T08:13:19.146Z,6.58
2019-03-31T08:15:45.390Z,6.72
2019-03-31T08:18:11.558Z,6.86
2019-03-31T08:20:37.738Z,7.14
2019-03-31T08:23:09.358Z,7.40
2019-03-31T08:25:35.515Z,7.52
2019-03-31T08:28:05.026Z,7.77
2019-03-31T08:30:31.112Z,8.12
2019-03-31T08:32:57.272Z,8.33
2019-03-31T08:35:23.494Z,8.69
2019-03-31T08:37:49.649Z,8.68
2019-03-31T08:40:18.392Z,8.77
2019-03-31T08:42:44.511Z,8.80
2019-03-31T08:45:10.735Z,8.92
2019-03-31T08:47:36.863Z,9.36
2019-03-31T08:50:05.346Z,9.59
2019-03-31T08:52:31.454Z,9.55
2019-03-31T08:54:57.600Z,9.54
2019-03-31T08:57:23.723Z,9.75
2019-03-31T08:59:49.786Z,9.95
2019-03-31T09:02:23.488Z,10.29
2019-03-31T09:04:49.527Z,10.57
2019-03-31T09:07:15.680Z,11.12
2019-03-31T09:09:41.807Z,11.50
2019-03-31T09:12:07.988Z,11.67
2019-03-31T09:14:34.157Z,12.00
2019-03-31T09:17:00.271Z,12.35
2019-03-31T09:19:26.496Z,12.57
2019-03-31T09:21:53.735Z,12.67
2019-03-31T09:24:19.872Z,12.54
2019-03-31T09:26:46.034Z,12.49
2019-03-31T09:29:12.182Z,12.51
2019-03-31T09:31:38.302Z,12.44
2019-03-31T09:34:04.488Z,12.65
2019-03-31T09:36:30.631Z,12.72
2019-03-31T09:38:56.774Z,12.90
2019-03-31T09:41:22.905Z,13.06
2019-03-31T09:43:49.033Z,13.14
2019-03-31T09:46:15.147Z,13.28
2019-03-31T09:48:41.274Z,13.28
2019-03-31T09:51:07.415Z,13.23
2019-03-31T09:53:33.537Z,13.26
2019-03-31T09:55:59.671Z,13.31
2019-03-31T09:58:25.816Z,13.35
2019-03-31T10:00:51.944Z,13.39
2019-03-31T10:03:18.379Z,13.45
2019-03-31T10:05:47.686Z,13.74
2019-03-31T10:08:12.688Z,14.08
2019-03-31T10:10:39.175Z,14.19
2019-03-31T10:13:05.287Z,14.32
2019-03-31T10:15:31.563Z,14.37
2019-03-31T10:17:57.748Z,14.45
2019-03-31T10:20:23.936Z,14.43
2019-03-31T10:22:50.071Z,14.61
2019-03-31T10:25:16.227Z,14.70
2019-03-31T10:27:42.469Z,14.78
2019-03-31T10:30:09.991Z,14.89
2019-03-31T10:32:36.246Z,14.98
2019-03-31T10:35:05.029Z,15.05
2019-03-31T10:37:31.194Z,15.06
2019-03-31T10:39:57.339Z,15.06
2019-03-31T10:42:23.579Z,15.20
2019-03-31T10:44:49.711Z,15.35
2019-03-31T10:47:15.860Z,15.50
2019-03-31T10:49:47.200Z,15.58
2019-03-31T10:52:13.304Z,15.56
2019-03-31T10:54:39.901Z,15.57
2019-03-31T10:57:06.059Z,15.60
2019-03-31T10:59:32.241Z,15.70
2019-03-31T11:01:58.440Z,15.84
2019-03-31T11:04:26.880Z,15.95
2019-03-31T11:06:59.619Z,16.01
2019-03-31T11:09:23.873Z,15.96
2019-03-31T11:11:50.017Z,16.04
2019-03-31T11:14:16.317Z,16.09
2019-03-31T11:16:49.321Z,16.03
2019-03-31T11:19:19.757Z,16.14
2019-03-31T11:24:26.532Z,16.40
2019-03-31T11:26:52.689Z,16.54
2019-03-31T11:29:18.914Z,16.53
2019-03-31T11:31:45.089Z,16.48
2019-03-31T11:34:11.235Z,16.53
2019-03-31T11:36:37.169Z,16.58
2019-03-31T11:39:05.140Z,16.60
2019-03-31T11:41:31.172Z,16.64
2019-03-31T11:43:57.425Z,16.67
2019-03-31T11:46:23.534Z,16.73
2019-03-31T11:48:49.655Z,16.86
2019-03-31T11:51:15.839Z,16.92
2019-03-31T11:53:47.099Z,16.86
2019-03-31T11:56:13.366Z,16.81
2019-03-31T11:58:39.605Z,16.88
2019-03-31T12:01:05.844Z,16.89
2019-03-31T12:03:32.074Z,17.03
2019-03-31T12:05:58.188Z,17.06
2019-03-31T12:08:24.395Z,17.08
2019-03-31T12:10:50.545Z,17.06
2019-03-31T12:13:16.663Z,17.10
2019-03-31T12:15:42.786Z,17.12
2019-03-31T12:18:08.922Z,17.09
2019-03-31T12:20:35.143Z,17.15
2019-03-31T12:23:01.160Z,17.18
2019-03-31T12:25:27.337Z,17.21
2019-03-31T12:27:55.585Z,17.28
2019-03-31T12:30:27.995Z,17.32
2019-03-31T12:32:55.151Z,17.38
2019-03-31T12:35:21.289Z,17.37
2019-03-31T12:37:47.529Z,17.30
2019-03-31T12:40:17.252Z,17.32
2019-03-31T12:42:43.388Z,17.35
2019-03-31T12:45:09.453Z,17.34
2019-03-31T12:47:35.571Z,17.25
2019-03-31T12:50:01.812Z,17.25
2019-03-31T12:52:27.941Z,17.28
2019-03-31T12:54:54.168Z,17.26
2019-03-31T12:57:20.111Z,17.26
2019-03-31T12:59:46.217Z,17.23
2019-03-31T13:02:12.412Z,17.20
2019-03-31T13:04:38.533Z,17.20
2019-03-31T13:07:04.780Z,17.19
2019-03-31T13:09:30.938Z,17.09
2019-03-31T13:11:57.102Z,17.08
2019-03-31T13:14:23.281Z,17.08
2019-03-31T13:16:49.399Z,17.15
2019-03-31T13:19:15.511Z,17.27
2019-03-31T13:21:41.695Z,17.32
2019-03-31T13:24:07.809Z,17.35
2019-03-31T13:26:33.965Z,17.34
2019-03-31T13:29:00.094Z,17.30
2019-03-31T13:31:26.160Z,17.32
2019-03-31T13:33:52.432Z,17.34
2019-03-31T13:36:18.613Z,17.37
2019-03-31T13:38:44.775Z,17.28
2019-03-31T13:41:10.942Z,17.23
2019-03-31T13:43:37.094Z,17.24
2019-03-31T13:46:03.225Z,17.23
2019-03-31T13:48:29.594Z,17.25
2019-03-31T13:50:57.603Z,17.28
2019-03-31T13:53:23.757Z,17.33
2019-03-31T13:55:49.890Z,17.34
2019-03-31T13:58:18.561Z,17.27
2019-03-31T14:00:45.156Z,17.24
2019-03-31T14:03:11.368Z,17.28
2019-03-31T14:05:37.503Z,17.22
2019-03-31T14:08:03.966Z,17.21
2019-03-31T14:10:30.074Z,17.19
2019-03-31T14:12:56.254Z,17.22
2019-03-31T14:15:22.502Z,17.25
2019-03-31T14:17:48.668Z,17.26
2019-03-31T14:20:14.908Z,17.19
2019-03-31T14:22:42.338Z,17.17
2019-03-31T14:25:08.485Z,17.16
2019-03-31T14:27:34.655Z,17.15
2019-03-31T14:30:06.509Z,17.13
2019-03-31T14:32:32.541Z,17.09
2019-03-31T14:34:58.707Z,17.10
2019-03-31T14:37:24.862Z,17.10
2019-03-31T14:39:51.109Z,17.08
2019-03-31T14:42:17.266Z,17.07
2019-03-31T14:44:44.303Z,17.00
2019-03-31T14:47:10.609Z,16.97
2019-03-31T14:49:36.675Z,16.91
2019-03-31T14:52:02.845Z,16.87
2019-03-31T14:54:28.870Z,16.82
2019-03-31T14:56:55.015Z,16.84
2019-03-31T14:59:21.152Z,16.80
2019-03-31T15:01:47.436Z,16.76
2019-03-31T15:04:13.584Z,16.75
2019-03-31T15:06:39.885Z,16.78
2019-03-31T15:09:07.074Z,16.75
2019-03-31T15:11:33.111Z,16.73
2019-03-31T15:13:59.263Z,16.72
2019-03-31T15:16:28.938Z,16.73
2019-03-31T15:18:54.967Z,16.70
2019-03-31T15:21:21.142Z,16.70
2019-03-31T15:23:47.371Z,16.63
2019-03-31T15:26:13.598Z,16.59
2019-03-31T15:28:39.858Z,16.58
2019-03-31T15:31:06.119Z,16.56
2019-03-31T15:33:32.469Z,16.50
2019-03-31T15:35:58.636Z,16.50
2019-03-31T15:38:24.860Z,16.50
2019-03-31T15:40:51.151Z,16.48
2019-03-31T15:43:17.311Z,16.45
2019-03-31T15:45:43.535Z,16.41
2019-03-31T15:48:09.678Z,16.34
2019-03-31T15:50:36.374Z,16.33
2019-03-31T15:53:02.668Z,16.26
2019-03-31T15:55:28.776Z,16.28
2019-03-31T15:57:55.014Z,16.26
2019-03-31T16:00:21.244Z,16.25
2019-03-31T16:02:47.507Z,16.19
2019-03-31T16:05:13.630Z,16.15
2019-03-31T16:07:39.691Z,16.15
2019-03-31T16:10:05.965Z,16.10
2019-03-31T16:12:32.122Z,16.05
2019-03-31T16:14:58.374Z,16.01
2019-03-31T16:17:24.665Z,15.95
2019-03-31T16:19:53.799Z,15.92
2019-03-31T16:22:20.067Z,15.89
2019-03-31T16:24:48.155Z,15.90
2019-03-31T16:27:14.446Z,15.89
2019-03-31T16:29:40.581Z,15.87
2019-03-31T16:32:06.763Z,15.84
2019-03-31T16:34:32.885Z,15.80
2019-03-31T16:36:59.013Z,15.77
2019-03-31T16:39:36.880Z,15.71
2019-03-31T16:41:53.470Z,15.66
2019-03-31T16:44:19.766Z,15.48
2019-03-31T16:46:46.084Z,15.35
2019-03-31T16:49:12.316Z,15.26
2019-03-31T16:51:38.591Z,15.11
2019-03-31T16:54:05.100Z,15.02
2019-03-31T16:56:31.354Z,14.92
2019-03-31T16:58:57.501Z,14.78
2019-03-31T17:01:23.637Z,14.60
2019-03-31T17:03:49.754Z,14.37
2019-03-31T17:06:15.907Z,14.19
2019-03-31T17:08:42.074Z,14.07
2019-03-31T17:11:09.181Z,13.93
2019-03-31T17:13:35.330Z,13.68
2019-03-31T17:16:01.591Z,13.43
2019-03-31T17:18:27.714Z,13.26
2019-03-31T17:20:53.890Z,13.21
2019-03-31T17:23:20.175Z,13.17
2019-03-31T17:25:46.309Z,12.99
2019-03-31T17:28:12.400Z,12.88
2019-03-31T17:30:38.652Z,12.82
2019-03-31T17:33:04.949Z,12.72
2019-03-31T17:35:31.186Z,12.56
2019-03-31T17:37:59.629Z,12.41
2019-03-31T17:40:25.921Z,12.31
2019-03-31T17:42:52.217Z,12.14
2019-03-31T17:45:18.495Z,12.01
2019-03-31T17:47:44.722Z,11.85
2019-03-31T17:50:11.193Z,11.73
2019-03-31T17:52:37.434Z,11.60
2019-03-31T17:55:04.727Z,11.49
2019-03-31T17:57:31.023Z,11.41
2019-03-31T17:59:57.298Z,11.32
2019-03-31T18:02:23.578Z,11.30
2019-03-31T18:04:51.898Z,11.20
2019-03-31T18:07:18.111Z,11.06
2019-03-31T18:09:44.281Z,10.96
2019-03-31T18:12:10.525Z,10.84
2019-03-31T18:14:38.505Z,10.77
2019-03-31T18:17:04.755Z,10.71
2019-03-31T18:19:30.875Z,10.64
2019-03-31T18:21:57.050Z,10.57
2019-03-31T18:24:23.189Z,10.47
2019-03-31T18:26:49.336Z,10.41
2019-03-31T18:29:16.034Z,10.31
2019-03-31T18:31:42.200Z,10.26
2019-03-31T18:34:08.343Z,10.19
2019-03-31T18:36:36.817Z,10.09
2019-03-31T18:39:05.344Z,9.99
2019-03-31T18:41:31.484Z,9.88
2019-03-31T18:43:57.642Z,9.74
2019-03-31T18:46:23.771Z,9.60
2019-03-31T18:48:49.892Z,9.49
2019-03-31T18:51:16.035Z,9.45
2019-03-31T18:54:02.051Z,9.41
2019-03-31T19:13:20.435Z,8.79
2019-03-31T19:15:51.104Z,8.73
2019-03-31T19:21:11.014Z,8.55
2019-03-31T19:23:56.683Z,8.50
2019-03-31T19:26:27.518Z,8.43
2019-03-31T19:29:10.730Z,8.35
2019-03-31T19:31:41.604Z,8.25
2019-03-31T19:34:09.612Z,8.20
2019-03-31T19:36:40.519Z,8.18
2019-03-31T19:39:24.561Z,8.10
2019-03-31T19:44:35.954Z,8.03
2019-03-31T19:47:06.548Z,7.91
2019-03-31T19:49:34.623Z,7.87
2019-03-31T19:52:06.208Z,7.87
2019-03-31T19:54:35.522Z,7.86
2019-03-31T20:00:02.565Z,7.77
2019-03-31T20:02:30.610Z,7.76
2019-03-31T20:04:58.643Z,7.75
2019-03-31T20:07:29.531Z,7.66
2019-03-31T20:10:14.435Z,7.59
2019-03-31T20:12:59.216Z,7.60
2019-03-31T20:15:29.762Z,7.61
2019-03-31T20:18:14.164Z,7.55
2019-03-31T20:20:44.870Z,7.38
2019-03-31T20:23:29.637Z,7.30
2019-03-31T20:28:56.763Z,7.41
2019-03-31T20:31:33.569Z,7.36
2019-03-31T20:36:50.473Z,7.68
2019-03-31T20:39:18.571Z,7.78
2019-03-31T20:44:44.355Z,8.00
2019-03-31T20:47:10.505Z,8.06
2019-03-31T20:49:36.762Z,8.12
2019-03-31T20:52:03.009Z,8.21
2019-03-31T20:54:32.797Z,8.37
2019-03-31T20:56:58.299Z,8.67
2019-03-31T20:59:24.467Z,9.21
2019-03-31T21:01:53.243Z,9.40
2019-03-31T21:04:19.340Z,9.58
2019-03-31T21:06:45.564Z,9.67
2019-03-31T21:09:11.705Z,9.83
2019-03-31T21:11:37.929Z,9.90
2019-03-31T21:14:04.055Z,10.08
2019-03-31T21:16:30.310Z,10.14
2019-03-31T21:18:56.453Z,10.21
2019-03-31T21:21:22.750Z,10.22
2019-03-31T21:23:48.870Z,10.22
2019-03-31T21:26:15.153Z,10.25
2019-03-31T21:28:41.445Z,10.25
2019-03-31T21:31:07.705Z,10.27
2019-03-31T21:33:33.860Z,10.26
2019-03-31T21:36:00.096Z,10.29
2019-03-31T21:38:26.261Z,10.30
2019-03-31T21:40:52.502Z,10.29
2019-03-31T21:43:18.785Z,10.26
2019-03-31T21:45:45.305Z,10.29
2019-03-31T21:48:11.432Z,10.30
2019-03-31T21:50:38.039Z,10.29
2019-03-31T21:53:04.158Z,10.31
2019-03-31T21:55:30.296Z,10.28
2019-03-31T21:57:56.466Z,10.25
2019-03-31T22:00:27.024Z,10.26
2019-03-31T22:02:53.144Z,10.24
2019-03-31T22:05:19.269Z,10.25
2019-03-31T22:07:45.408Z,10.23
2019-03-31T22:10:11.548Z,10.19
2019-03-31T22:12:37.666Z,10.21
2019-03-31T22:15:04.801Z,10.22
2019-03-31T22:17:30.946Z,10.17
2019-03-31T22:19:57.184Z,10.20
2019-03-31T22:22:23.325Z,10.18
2019-03-31T22:24:49.437Z,10.14
2019-03-31T22:27:15.667Z,10.13
2019-03-31T22:29:41.793Z,10.12
2019-03-31T22:32:07.927Z,10.16
2019-03-31T22:34:34.079Z,10.17
2019-03-31T22:37:00.201Z,10.15
2019-03-31T22:39:26.334Z,10.14
2019-03-31T22:41:52.458Z,10.09
2019-03-31T22:44:18.515Z,10.09
2019-03-31T22:46:54.139Z,9.93
2019-03-31T22:49:12.735Z,9.89
2019-03-31T22:51:38.874Z,9.79
2019-03-31T22:54:04.992Z,9.69
2019-03-31T22:56:31.119Z,9.70
2019-03-31T22:58:57.278Z,9.64
2019-03-31T23:01:23.488Z,9.51
2019-03-31T23:03:49.645Z,9.57
2019-03-31T23:06:15.785Z,9.55
2019-03-31T23:08:41.899Z,9.58
2019-03-31T23:11:08.057Z,9.52
2019-03-31T23:13:34.083Z,9.32
2019-03-31T23:16:00.216Z,9.23
2019-03-31T23:18:26.359Z,9.19
2019-03-31T23:20:52.524Z,9.15
2019-03-31T23:23:18.551Z,9.05
2019-03-31T23:25:44.728Z,9.03
2019-03-31T23:28:10.853Z,9.06
2019-03-31T23:30:37.103Z,9.03
2019-03-31T23:33:03.143Z,9.01
2019-03-31T23:35:29.184Z,9.00
2019-03-31T23:37:58.125Z,8.95
2019-03-31T23:40:24.239Z,8.93
2019-03-31T23:42:50.363Z,8.96
2019-03-31T23:45:16.419Z,8.73
2019-03-31T23:47:42.576Z,8.72
2019-03-31T23:50:08.997Z,8.68
2019-03-31T23:52:35.319Z,8.62
2019-03-31T23:55:01.350Z,8.62
2019-03-31T23:57:40.043Z,8.60
